LFQG

Details ICAO LFQG (NVS)
Name Nevers Fourchambault
Region France
Timezone Europe/Paris (UTC+1.0)
Plans Departing 10
Arriving 5
Stats Elevation 602 ft / 183 m (AMSL)
Location 47.002896° 3.113485°
Runways 2
Magnetic Variation 0.912° E
Sunrise 2017-12-11 07:24:43 UTC / 2017-12-11 08:24:43 Local
Sunset 2017-12-11 15:59:48 UTC / 2017-12-11 16:59:48 Local
Advertisement - Login to hide

Runways

ID Width Length Bearing (true) Bearing (mag) Surface Threshold Offset Overrun Length
12 98 ft / 30 m 5,333 ft / 1,626 m 122.03° 121.12° Asphalt 525 ft / 160 m 0 ft / 0 m
12L 197 ft / 60 m 3,053 ft / 931 m 122.04° 121.13° Grass 0 ft / 0 m 0 ft / 0 m
30 98 ft / 30 m 5,333 ft / 1,626 m 302.04° 301.13° Asphalt 1,280 ft / 390 m 0 ft / 0 m
30R 197 ft / 60 m 3,053 ft / 931 m 302.04° 301.13° Grass 0 ft / 0 m 0 ft / 0 m

Map

Weather


0- 5 10 15 20 25 30 35+ Temperature / ° C

Clouds and Precipitation
Forecast for 2017-12-11 12:00 UTC. Updated 20 minutes ago

Ground ~20,000 ft ~40,000 ft Winds

METAR

LFQG 110730Z AUTO 21015G26KT 170V260 9999 FEW045 OVC086 11/05 Q0978

TAF

Not found

Frequencies

Tower 120.60 MHz NEVERS INFO
Warning: Do not use this data for real-world aviation or navigation. No guarantee of current accuracy is given.